Time;durP1;ratioP1;P1;durP2;ratioP2;P2;SDS_P1;SDS_P2;PMS_P1;PMS_P2;Temp;Humidity;BMP_temperature;BMP_pressure;BME280_temperature;BME280_humidity;BME280_pressure;Samples;Min_cycle;Max_cycle;Signal;HPM_P1;HPM_P2
2023/07/22 00:00:45;;;;;;;10.40;4.63;;;12.50;99.90;;;;;;5049489;28;20084;-22
2023/07/22 00:03:11;;;;;;;10.75;4.28;;;12.60;99.90;;;;;;5054982;28;20045;-22
2023/07/22 00:05:37;;;;;;;6.53;3.10;;;12.50;99.90;;;;;;5054677;28;20124;-22
2023/07/22 00:08:03;;;;;;;6.72;3.10;;;12.40;99.90;;;;;;5037830;28;20067;-22
2023/07/22 00:10:29;;;;;;;6.93;2.65;;;12.30;99.90;;;;;;5048285;28;20131;-22
2023/07/22 00:12:54;;;;;;;4.95;2.78;;;12.10;99.90;;;;;;5041124;28;20127;-22
2023/07/22 00:15:22;;;;;;;6.55;2.60;;;11.90;99.90;;;;;;5055053;28;20049;-22
2023/07/22 00:17:48;;;;;;;7.93;2.53;;;11.80;99.90;;;;;;5044658;28;20051;-22
2023/07/22 00:20:14;;;;;;;11.20;2.75;;;11.60;99.90;;;;;;5033879;28;20049;-22
2023/07/22 00:22:40;;;;;;;9.32;3.03;;;11.40;99.90;;;;;;5040552;28;20117;-22
2023/07/22 00:25:09;;;;;;;7.30;2.95;;;11.30;99.90;;;;;;5054595;28;20051;-22
2023/07/22 00:27:36;;;;;;;10.32;4.03;;;11.30;99.90;;;;;;5054674;28;20056;-22
2023/07/22 00:30:02;;;;;;;7.53;3.40;;;11.30;99.90;;;;;;5043914;28;20053;-22
2023/07/22 00:32:27;;;;;;;8.50;3.80;;;11.30;99.90;;;;;;4990934;28;1267853;-22
2023/07/22 00:34:53;;;;;;;9.80;3.97;;;11.30;99.90;;;;;;5036218;28;20553;-22
2023/07/22 00:37:19;;;;;;;9.57;4.60;;;11.30;99.90;;;;;;5037460;28;20044;-22
2023/07/22 00:39:45;;;;;;;10.70;4.13;;;11.30;99.90;;;;;;5019414;28;20080;-22
2023/07/22 00:42:10;;;;;;;9.88;4.20;;;11.30;99.90;;;;;;5047141;28;20487;-22
2023/07/22 00:44:37;;;;;;;15.45;4.78;;;11.30;99.90;;;;;;5052982;28;20512;-22
2023/07/22 00:47:03;;;;;;;13.50;5.40;;;11.30;99.90;;;;;;5055577;28;20048;-22
2023/07/22 00:49:30;;;;;;;13.82;6.07;;;11.30;99.90;;;;;;5042816;28;20217;-22
2023/07/22 00:52:02;;;;;;;13.50;6.53;;;11.30;99.90;;;;;;5040325;28;20458;-22
2023/07/22 00:54:28;;;;;;;14.65;6.13;;;11.40;99.90;;;;;;5055224;28;20487;-22
2023/07/22 00:56:54;;;;;;;11.38;5.45;;;11.40;99.90;;;;;;5055184;28;20083;-22
2023/07/22 00:59:21;;;;;;;14.93;6.38;;;11.40;99.90;;;;;;5046054;28;20539;-22
2023/07/22 01:01:46;;;;;;;11.43;6.32;;;11.40;99.90;;;;;;5051927;28;20041;-22
2023/07/22 01:04:16;;;;;;;16.15;6.75;;;11.40;99.90;;;;;;5045774;28;20052;-22
2023/07/22 01:06:44;;;;;;;17.45;6.60;;;11.30;99.90;;;;;;5041981;28;20045;-22
2023/07/22 01:09:09;;;;;;;16.27;6.93;;;11.30;99.90;;;;;;5050411;28;20041;-22
2023/07/22 01:11:35;;;;;;;16.25;6.68;;;11.30;99.90;;;;;;5038523;28;20037;-22
2023/07/22 01:14:02;;;;;;;13.23;6.68;;;11.20;99.90;;;;;;5046562;28;20049;-22
2023/07/22 01:16:28;;;;;;;11.75;5.90;;;11.20;99.90;;;;;;5054737;28;20060;-22
2023/07/22 01:18:54;;;;;;;14.32;6.38;;;11.10;99.90;;;;;;5035170;28;20045;-22
2023/07/22 01:21:24;;;;;;;16.02;6.57;;;11.00;99.90;;;;;;5034702;28;20487;-22
2023/07/22 01:23:51;;;;;;;15.40;7.45;;;11.00;99.90;;;;;;5034672;28;20041;-22
2023/07/22 01:26:16;;;;;;;13.18;6.97;;;11.00;99.90;;;;;;5034235;28;20052;-22
2023/07/22 01:28:43;;;;;;;14.00;6.25;;;10.90;99.90;;;;;;5033231;28;20042;-22
2023/07/22 01:31:09;;;;;;;14.23;7.22;;;10.90;99.90;;;;;;5034901;28;20041;-22
2023/07/22 01:33:35;;;;;;;15.25;7.28;;;10.80;99.90;;;;;;5034979;28;20388;-22
2023/07/22 01:36:01;;;;;;;14.30;7.10;;;10.80;99.90;;;;;;5035280;28;20049;-22
2023/07/22 01:38:29;;;;;;;17.55;6.35;;;10.70;99.90;;;;;;5034357;28;20562;-22
2023/07/22 01:40:55;;;;;;;26.23;8.07;;;10.70;99.90;;;;;;5034365;28;20150;-22
2023/07/22 01:43:21;;;;;;;14.75;7.15;;;10.60;99.90;;;;;;5041421;28;20038;-22
2023/07/22 01:45:47;;;;;;;13.65;7.22;;;10.60;99.90;;;;;;5051358;28;20044;-22
2023/07/22 01:48:13;;;;;;;16.60;7.72;;;10.60;99.90;;;;;;5035781;28;20474;-22
2023/07/22 01:50:38;;;;;;;18.55;8.05;;;10.50;99.90;;;;;;5054137;28;20048;-23
2023/07/22 01:53:05;;;;;;;14.18;7.22;;;10.40;99.90;;;;;;5042297;28;20049;-22
2023/07/22 01:55:32;;;;;;;15.45;7.10;;;10.30;99.90;;;;;;5033829;28;20080;-22
2023/07/22 01:57:58;;;;;;;12.98;6.35;;;10.20;99.90;;;;;;5047890;28;20052;-22
2023/07/22 02:00:24;;;;;;;29.73;7.60;;;10.10;99.90;;;;;;5053930;28;20393;-22
2023/07/22 02:02:50;;;;;;;14.15;6.95;;;10.00;99.90;;;;;;5037737;28;20120;-22
2023/07/22 02:05:16;;;;;;;17.77;7.60;;;10.00;99.90;;;;;;5047679;28;20128;-22
2023/07/22 02:07:42;;;;;;;17.77;7.40;;;9.90;99.90;;;;;;5053827;28;20056;-22
2023/07/22 02:10:09;;;;;;;17.20;7.78;;;9.80;99.90;;;;;;5047928;28;21270;-22
2023/07/22 02:12:35;;;;;;;19.83;8.43;;;9.70;99.90;;;;;;5036936;28;20124;-22
2023/07/22 02:15:02;;;;;;;16.58;7.10;;;9.70;99.90;;;;;;5044636;28;20049;-22
2023/07/22 02:17:28;;;;;;;16.67;8.15;;;9.60;99.90;;;;;;5053707;28;20539;-22
2023/07/22 02:19:54;;;;;;;20.52;8.50;;;9.60;99.90;;;;;;5036014;28;20080;-22
2023/07/22 02:22:20;;;;;;;20.90;9.00;;;9.60;99.90;;;;;;5044561;28;20114;-22
2023/07/22 02:24:46;;;;;;;24.00;9.55;;;9.60;99.90;;;;;;5053643;28;20487;-22
2023/07/22 02:27:11;;;;;;;17.20;8.02;;;9.70;99.90;;;;;;5052360;28;20041;-22
2023/07/22 02:29:37;;;;;;;30.73;9.80;;;9.70;99.90;;;;;;5035860;28;20056;-22
2023/07/22 02:32:03;;;;;;;21.65;9.30;;;9.70;99.90;;;;;;5036565;28;20045;-22
2023/07/22 02:34:29;;;;;;;21.08;9.27;;;9.70;99.90;;;;;;5033423;28;20065;-22
2023/07/22 02:36:55;;;;;;;22.80;9.13;;;9.70;99.90;;;;;;5032424;28;20057;-23
2023/07/22 02:39:20;;;;;;;22.48;8.88;;;9.70;99.90;;;;;;5033896;28;20042;-22
2023/07/22 02:41:46;;;;;;;26.42;9.80;;;9.70;99.90;;;;;;5034041;28;20045;-22
2023/07/22 02:44:12;;;;;;;24.40;9.85;;;9.70;99.90;;;;;;5033492;28;20128;-22
2023/07/22 02:46:38;;;;;;;23.65;8.70;;;9.70;99.90;;;;;;5032371;28;20053;-22
2023/07/22 02:49:05;;;;;;;19.75;8.10;;;9.70;99.90;;;;;;5048678;28;20049;-22
2023/07/22 02:51:30;;;;;;;21.48;8.82;;;9.70;99.90;;;;;;5052236;28;20053;-22
2023/07/22 02:53:56;;;;;;;16.73;8.30;;;9.70;99.90;;;;;;5052446;28;20106;-22
2023/07/22 02:56:23;;;;;;;19.77;8.20;;;9.60;99.90;;;;;;5040906;28;20038;-22
2023/07/22 02:58:50;;;;;;;22.95;9.25;;;9.60;99.90;;;;;;5063874;28;20053;-22
2023/07/22 03:01:16;;;;;;;22.55;8.43;;;9.60;99.90;;;;;;5063104;28;20060;-22
2023/07/22 03:03:41;;;;;;;20.17;8.60;;;9.60;99.90;;;;;;5053257;28;20204;-23
2023/07/22 03:06:09;;;;;;;22.40;8.98;;;9.60;99.90;;;;;;5048213;28;20057;-23
2023/07/22 03:08:35;;;;;;;22.85;8.23;;;9.60;99.90;;;;;;5045421;28;20053;-22
2023/07/22 03:11:00;;;;;;;21.35;9.13;;;9.40;99.90;;;;;;5034349;28;20045;-23
2023/07/22 03:13:29;;;;;;;20.02;9.05;;;9.50;99.90;;;;;;5032880;28;20519;-22
2023/07/22 03:15:56;;;;;;;21.52;9.35;;;9.50;99.90;;;;;;5044343;28;20098;-22
2023/07/22 03:18:22;;;;;;;24.70;10.20;;;9.40;99.90;;;;;;5041961;28;20040;-23
2023/07/22 03:20:48;;;;;;;28.20;10.40;;;9.40;99.90;;;;;;5052305;28;20053;-23
2023/07/22 03:23:14;;;;;;;25.60;10.80;;;9.40;99.90;;;;;;5052122;28;20080;-23
2023/07/22 03:25:41;;;;;;;24.17;10.20;;;9.40;99.90;;;;;;5051800;28;20102;-23
2023/07/22 03:28:07;;;;;;;27.65;11.35;;;9.40;99.90;;;;;;5042492;28;20513;-23
2023/07/22 03:30:33;;;;;;;24.45;10.77;;;9.30;99.90;;;;;;5032619;28;20037;-23
2023/07/22 03:33:00;;;;;;;31.00;11.80;;;9.30;99.90;;;;;;5048144;28;20131;-23
2023/07/22 03:35:27;;;;;;;24.75;12.00;;;9.30;99.90;;;;;;5045382;28;20052;-23
2023/07/22 03:37:53;;;;;;;28.27;12.13;;;9.30;99.90;;;;;;5057189;28;20077;-23
2023/07/22 03:40:26;;;;;;;25.10;11.07;;;9.20;99.90;;;;;;5043988;28;20080;-23
2023/07/22 03:42:52;;;;;;;;;;;9.20;99.90;;;;;;5037615;28;20049;-23
2023/07/22 03:45:19;;;;;;;23.30;10.75;;;9.30;99.90;;;;;;5037107;28;19925;-23
2023/07/22 03:47:46;;;;;;;27.00;10.32;;;9.30;99.90;;;;;;5050594;28;20392;-23
2023/07/22 03:50:12;;;;;;;26.48;10.73;;;9.30;99.90;;;;;;5056339;28;20045;-23
2023/07/22 03:52:38;;;;;;;24.60;10.25;;;9.40;99.90;;;;;;5042792;28;20046;-23
2023/07/22 03:55:05;;;;;;;21.55;8.68;;;9.50;99.90;;;;;;5036354;28;20049;-23
2023/07/22 03:57:31;;;;;;;20.60;9.38;;;9.60;99.90;;;;;;5036323;28;20060;-23
2023/07/22 03:59:57;;;;;;;24.17;8.98;;;9.70;99.90;;;;;;5036313;28;20033;-23
2023/07/22 04:02:24;;;;;;;20.50;9.05;;;9.80;99.90;;;;;;5034764;28;20523;-23
2023/07/22 04:04:55;;;;;;;19.27;9.32;;;9.90;99.90;;;;;;5036591;28;20046;-23
2023/07/22 04:07:21;;;;;;;22.80;9.25;;;10.00;99.90;;;;;;5034996;28;20132;-23
2023/07/22 04:09:47;;;;;;;21.70;9.35;;;10.10;99.90;;;;;;5036067;28;20425;-23
2023/07/22 04:12:13;;;;;;;25.88;10.32;;;10.10;99.90;;;;;;5037524;28;20070;-23
2023/07/22 04:14:40;;;;;;;24.55;10.02;;;10.30;99.90;;;;;;5051813;28;20403;-23
2023/07/22 04:17:06;;;;;;;19.80;9.30;;;10.30;99.90;;;;;;5056171;28;20056;-23
2023/07/22 04:19:32;;;;;;;24.45;9.68;;;10.40;99.90;;;;;;5053450;28;20044;-23
2023/07/22 04:21:57;;;;;;;22.30;9.73;;;10.50;99.90;;;;;;5043292;28;20038;-23
2023/07/22 04:24:25;;;;;;;22.15;8.90;;;10.60;99.90;;;;;;5054979;28;20056;-23
2023/07/22 04:26:51;;;;;;;25.60;11.00;;;10.70;99.90;;;;;;5055657;28;20049;-23
2023/07/22 04:29:17;;;;;;;22.92;8.77;;;10.80;99.90;;;;;;5042563;28;20072;-23
2023/07/22 04:31:42;;;;;;;26.02;10.20;;;10.90;99.90;;;;;;5043995;28;20045;-23
2023/07/22 04:34:09;;;;;;;21.13;9.32;;;11.00;99.90;;;;;;5050046;28;20053;-23
2023/07/22 04:36:36;;;;;;;24.33;8.52;;;11.00;99.90;;;;;;5054600;28;20091;-23
2023/07/22 04:39:05;;;;;;;22.08;8.65;;;11.10;99.90;;;;;;5052420;28;20048;-23
2023/07/22 04:41:31;;;;;;;20.75;9.27;;;11.20;99.90;;;;;;5054321;28;20084;-23
2023/07/22 04:43:58;;;;;;;21.45;9.77;;;11.30;99.90;;;;;;5036224;28;20103;-23
2023/07/22 04:46:24;;;;;;;20.20;9.02;;;11.40;99.90;;;;;;5039749;28;20048;-23
2023/07/22 04:48:50;;;;;;;16.63;8.93;;;11.50;99.90;;;;;;5055244;28;20110;-23
2023/07/22 04:51:15;;;;;;;20.15;9.77;;;11.60;99.90;;;;;;5053255;28;20123;-23
2023/07/22 04:53:41;;;;;;;20.20;9.13;;;11.60;99.90;;;;;;5045022;28;20102;-22
2023/07/22 04:56:07;;;;;;;17.80;8.95;;;11.70;99.90;;;;;;5055440;28;20047;-23
2023/07/22 04:58:32;;;;;;;19.00;9.30;;;11.70;99.90;;;;;;5053544;28;20483;-23
2023/07/22 05:00:58;;;;;;;16.23;8.82;;;11.70;99.90;;;;;;5055608;28;20045;-23
2023/07/22 05:03:27;;;;;;;17.05;8.65;;;11.80;99.90;;;;;;5044188;28;20495;-23
2023/07/22 05:05:53;;;;;;;15.25;8.32;;;11.90;99.90;;;;;;5017202;28;20048;-23
2023/07/22 05:08:18;;;;;;;20.08;8.50;;;12.00;99.90;;;;;;5047491;28;20044;-23
2023/07/22 05:10:45;;;;;;;15.35;8.73;;;12.10;99.90;;;;;;5053242;28;20491;-23
2023/07/22 05:13:11;;;;;;;17.50;8.10;;;12.20;99.90;;;;;;5017027;28;20037;-24
2023/07/22 05:15:36;;;;;;;17.60;8.20;;;12.30;99.90;;;;;;5033568;28;20095;-23
2023/07/22 05:18:02;;;;;;;17.98;7.95;;;12.40;99.90;;;;;;5034616;28;20041;-23
2023/07/22 05:20:28;;;;;;;16.42;8.13;;;12.50;99.90;;;;;;5036079;28;20128;-23
2023/07/22 05:22:53;;;;;;;14.32;8.05;;;12.60;99.90;;;;;;5050212;28;20132;-23
2023/07/22 05:25:19;;;;;;;18.63;8.32;;;12.70;99.90;;;;;;5050774;28;20514;-23
2023/07/22 05:27:45;;;;;;;13.93;8.48;;;12.90;99.90;;;;;;5053666;28;20041;-23
2023/07/22 05:30:10;;;;;;;19.83;9.25;;;13.30;99.90;;;;;;5052882;28;20080;-23
2023/07/22 05:32:36;;;;;;;18.42;8.43;;;13.70;99.90;;;;;;5053977;28;20128;-23
2023/07/22 05:35:04;;;;;;;16.27;9.32;;;14.00;99.90;;;;;;5042075;28;20121;-23
2023/07/22 05:37:31;;;;;;;12.77;7.65;;;14.30;99.90;;;;;;5052563;28;20049;-23
2023/07/22 05:39:56;;;;;;;13.27;7.88;;;14.60;99.90;;;;;;5048194;28;20060;-23
2023/07/22 05:42:22;;;;;;;14.70;8.50;;;14.70;99.90;;;;;;5035209;28;20041;-23
2023/07/22 05:44:48;;;;;;;13.20;8.25;;;14.80;99.90;;;;;;5034034;28;20487;-23
2023/07/22 05:47:14;;;;;;;14.75;8.27;;;15.00;99.90;;;;;;5052603;28;20187;-23
2023/07/22 05:49:40;;;;;;;12.20;8.50;;;15.10;99.90;;;;;;5053791;28;20044;-23
2023/07/22 05:52:06;;;;;;;16.50;8.23;;;15.20;99.90;;;;;;5049912;28;20052;-23
2023/07/22 05:54:32;;;;;;;12.48;7.78;;;15.60;99.90;;;;;;5034207;28;20112;-23
2023/07/22 05:56:58;;;;;;;12.57;6.80;;;16.00;99.90;;;;;;5034364;28;20496;-23
2023/07/22 05:59:23;;;;;;;11.27;7.43;;;16.20;99.90;;;;;;5034312;28;20476;-23
2023/07/22 06:01:49;;;;;;;13.50;8.55;;;16.10;99.90;;;;;;5033970;28;20049;-24
2023/07/22 06:04:15;;;;;;;14.50;8.63;;;16.00;99.90;;;;;;5034360;28;20049;-24
2023/07/22 06:06:41;;;;;;;10.73;7.80;;;15.70;99.90;;;;;;5034804;28;20402;-23
2023/07/22 06:09:06;;;;;;;15.48;8.82;;;15.60;99.90;;;;;;5033457;28;20049;-23
2023/07/22 06:11:32;;;;;;;13.85;8.23;;;15.60;99.90;;;;;;5037240;28;20072;-23
2023/07/22 06:13:58;;;;;;;13.70;8.65;;;15.50;99.90;;;;;;5015228;28;20075;-23
2023/07/22 06:16:23;;;;;;;12.00;8.38;;;15.30;99.90;;;;;;5034191;28;20128;-23
2023/07/22 06:18:49;;;;;;;15.57;8.48;;;15.20;99.90;;;;;;5033560;28;20099;-23
2023/07/22 06:21:15;;;;;;;16.17;9.10;;;15.10;99.90;;;;;;5034236;28;20073;-23
2023/07/22 06:23:41;;;;;;;14.52;8.77;;;15.00;99.90;;;;;;5043733;28;20108;-23
2023/07/22 06:26:07;;;;;;;13.75;8.98;;;15.00;99.90;;;;;;5052669;28;20043;-23
2023/07/22 06:28:33;;;;;;;13.57;8.65;;;15.10;99.90;;;;;;5034859;28;20558;-23
2023/07/22 06:30:58;;;;;;;15.07;8.88;;;15.20;99.90;;;;;;5033515;28;20045;-23
2023/07/22 06:33:24;;;;;;;15.65;9.15;;;15.20;99.90;;;;;;5045282;28;20048;-23
2023/07/22 06:35:50;;;;;;;17.23;9.68;;;15.40;99.90;;;;;;5052711;28;20052;-23
2023/07/22 06:38:15;;;;;;;13.98;9.30;;;15.50;99.90;;;;;;5043033;28;20037;-24
2023/07/22 06:40:41;;;;;;;17.73;11.05;;;15.80;99.90;;;;;;5035327;28;20148;-23
2023/07/22 06:43:07;;;;;;;15.07;9.80;;;15.90;99.90;;;;;;5060331;28;20503;-24
2023/07/22 06:45:33;;;;;;;14.55;10.13;;;16.10;99.90;;;;;;5064452;28;20048;-23
2023/07/22 06:47:59;;;;;;;18.70;10.07;;;16.10;1.00;;;;;;5069699;28;20045;-24
2023/07/22 06:50:25;;;;;;;18.60;9.60;;;16.00;1.00;;;;;;5072209;28;20051;-23
2023/07/22 06:52:50;;;;;;;17.17;10.43;;;16.00;94.60;;;;;;5073384;28;20066;-23
2023/07/22 06:55:16;;;;;;;17.65;10.48;;;16.30;99.90;;;;;;5034354;28;20046;-24
2023/07/22 06:57:45;;;;;;;15.30;10.73;;;16.70;99.90;;;;;;5033655;28;20096;-24
2023/07/22 07:00:11;;;;;;;16.10;10.77;;;16.70;1.00;;;;;;5053629;28;20095;-24
2023/07/22 07:02:36;;;;;;;15.13;10.35;;;16.80;1.00;;;;;;5053249;28;20041;-24
2023/07/22 07:05:03;;;;;;;15.25;10.70;;;16.90;1.00;;;;;;5053222;28;20045;-24
2023/07/22 07:07:29;;;;;;;15.93;10.00;;;16.90;99.90;;;;;;5053919;28;20080;-24
2023/07/22 07:09:55;;;;;;;17.50;11.30;;;16.80;99.90;;;;;;5056941;28;20072;-24
2023/07/22 07:12:21;;;;;;;15.55;10.25;;;16.90;1.00;;;;;;5037590;28;20140;-24
2023/07/22 07:14:50;;;;;;;15.48;10.07;;;17.00;1.00;;;;;;5037121;28;20057;-24
2023/07/22 07:17:16;;;;;;;14.13;9.80;;;16.90;1.00;;;;;;5020155;28;20045;-24
2023/07/22 07:19:44;;;;;;;12.02;8.70;;;16.70;99.90;;;;;;5035854;28;20521;-24
2023/07/22 07:22:10;;;;;;;14.65;9.70;;;16.60;1.00;;;;;;5036640;28;20081;-24
2023/07/22 07:24:36;;;;;;;18.02;10.15;;;16.40;1.00;;;;;;5019935;28;20087;-24
2023/07/22 07:27:02;;;;;;;16.17;10.25;;;16.30;1.00;;;;;;5037016;28;20399;-24
2023/07/22 07:29:28;;;;;;;15.85;10.23;;;16.40;1.00;;;;;;5053430;28;20109;-25
2023/07/22 07:31:53;;;;;;;14.88;8.73;;;16.30;1.00;;;;;;5057285;28;20379;-24
2023/07/22 07:34:19;;;;;;;15.50;10.63;;;16.40;1.00;;;;;;5054890;28;20506;-24
2023/07/22 07:36:45;;;;;;;15.98;9.18;;;16.50;1.00;;;;;;5036732;28;20502;-25
2023/07/22 07:39:11;;;;;;;13.75;9.13;;;16.60;1.00;;;;;;5037001;28;20120;-24
2023/07/22 07:41:37;;;;;;;15.95;10.38;;;16.70;1.00;;;;;;5036685;28;20558;-25
2023/07/22 07:44:04;;;;;;;15.80;9.80;;;16.90;1.00;;;;;;5035849;28;20053;-24
2023/07/22 07:46:29;;;;;;;13.52;9.65;;;17.10;1.00;;;;;;5056553;28;20053;-25
2023/07/22 07:48:57;;;;;;;13.27;9.25;;;17.30;1.00;;;;;;5056684;28;20098;-24
2023/07/22 07:51:26;;;;;;;16.50;10.30;;;17.40;99.90;;;;;;5056444;28;20056;-25
2023/07/22 07:53:52;;;;;;;15.73;9.98;;;17.50;99.90;;;;;;5056338;28;20072;-25
2023/07/22 07:56:18;;;;;;;12.52;8.32;;;17.70;99.90;;;;;;5056847;28;20041;-25
2023/07/22 07:58:47;;;;;;;13.88;9.23;;;17.70;99.90;;;;;;5056252;28;20136;-25
2023/07/22 08:01:14;;;;;;;13.50;9.00;;;18.00;76.30;;;;;;5055745;28;20110;-24
2023/07/22 08:03:41;;;;;;;12.02;8.75;;;18.00;1.00;;;;;;5036206;28;20057;-24
2023/07/22 08:06:08;;;;;;;12.02;9.00;;;18.10;1.00;;;;;;5036170;28;20491;-25
2023/07/22 08:08:34;;;;;;;13.35;8.65;;;18.20;1.00;;;;;;5036129;28;20046;-25
2023/07/22 08:11:01;;;;;;;13.93;8.60;;;18.30;1.00;;;;;;5036132;28;20055;-25
2023/07/22 08:13:29;;;;;;;14.30;8.73;;;18.30;99.90;;;;;;5035939;28;20498;-25
2023/07/22 08:15:55;;;;;;;11.93;9.05;;;18.60;99.90;;;;;;5036839;28;20048;-25
2023/07/22 08:18:21;;;;;;;12.68;8.57;;;18.90;99.90;;;;;;5018558;28;20053;-25
2023/07/22 08:20:47;;;;;;;10.20;7.65;;;19.00;99.90;;;;;;5035930;28;20387;-25
2023/07/22 08:23:14;;;;;;;10.18;7.88;;;18.80;1.00;;;;;;5043852;28;20099;-24
2023/07/22 08:25:39;;;;;;;9.95;7.32;;;18.60;1.00;;;;;;5055572;28;20486;-25
2023/07/22 08:28:05;;;;;;;10.48;8.07;;;18.30;4.30;;;;;;5052027;28;20053;-26
2023/07/22 08:30:31;;;;;;;10.43;7.95;;;18.30;99.90;;;;;;5044341;28;20037;-25
2023/07/22 08:32:56;;;;;;;9.85;7.78;;;18.10;99.90;;;;;;5056310;28;20057;-26
2023/07/22 08:35:22;;;;;;;12.98;8.32;;;18.10;99.90;;;;;;5055526;28;20088;-26
2023/07/22 08:37:51;;;;;;;9.30;7.07;;;18.20;99.90;;;;;;5054301;28;20053;-25
2023/07/22 08:40:17;;;;;;;12.73;7.20;;;18.20;99.90;;;;;;5055151;28;20479;-25
2023/07/22 08:42:46;;;;;;;13.68;8.05;;;18.10;99.90;;;;;;5049724;28;20065;-26
2023/07/22 08:45:13;;;;;;;10.38;7.53;;;18.30;99.90;;;;;;5036001;28;20085;-25
2023/07/22 08:47:47;;;;;;;11.98;8.00;;;18.40;99.90;;;;;;5035379;28;20522;-25
2023/07/22 08:50:19;;;;;;;11.95;7.90;;;18.40;1.00;;;;;;5035309;28;20132;-26
2023/07/22 08:52:46;;;;;;;11.50;6.50;;;18.40;1.00;;;;;;5035423;28;20077;-26
2023/07/22 08:55:13;;;;;;;13.60;8.13;;;18.70;1.00;;;;;;5051263;28;20533;-25
2023/07/22 08:57:39;;;;;;;8.68;7.15;;;18.90;1.00;;;;;;5055937;28;20429;-25
2023/07/22 09:00:09;;;;;;;9.40;6.82;;;19.00;6.60;;;;;;5055072;28;20067;-25
2023/07/22 09:02:36;;;;;;;11.25;7.55;;;19.20;1.00;;;;;;5053889;28;20179;-26
2023/07/22 09:05:02;;;;;;;11.90;8.93;;;19.10;99.90;;;;;;5020455;28;20499;-26
2023/07/22 09:07:29;;;;;;;11.98;7.32;;;19.10;99.90;;;;;;5033894;28;20045;-26
2023/07/22 09:09:57;;;;;;;10.77;8.45;;;18.80;99.90;;;;;;5034906;28;20107;-26
2023/07/22 09:12:25;;;;;;;10.23;6.85;;;18.70;1.00;;;;;;5017522;28;20180;-26
2023/07/22 09:14:52;;;;;;;9.30;6.30;;;18.50;1.00;;;;;;5042549;28;20052;-26
2023/07/22 09:17:17;;;;;;;14.95;8.20;;;18.10;99.90;;;;;;5054403;28;20126;-26
2023/07/22 09:19:43;;;;;;;11.18;7.22;;;18.00;1.00;;;;;;5040733;28;20040;-26
2023/07/22 09:22:09;;;;;;;11.18;7.95;;;17.90;99.90;;;;;;5053538;28;20037;-26
2023/07/22 09:24:34;;;;;;;14.00;6.95;;;17.80;1.00;;;;;;5044643;28;20045;-27
2023/07/22 09:27:00;;;;;;;9.90;6.82;;;17.70;31.10;;;;;;5041623;28;20076;-26
2023/07/22 09:29:39;;;;;;;11.48;7.38;;;17.50;1.00;;;;;;5036692;28;20052;-25
2023/07/22 09:32:05;;;;;;;10.80;4.85;;;17.30;99.90;;;;;;5053215;28;20083;-24
2023/07/22 09:34:34;;;;;;;8.98;4.47;;;16.40;99.90;;;;;;5052731;28;20056;-22
2023/07/22 09:37:05;;;;;;;9.70;5.78;;;15.70;20.80;;;;;;5043294;28;20064;-21
2023/07/22 09:39:31;;;;;;;11.30;6.47;;;15.20;99.90;;;;;;5034056;28;20407;-22
2023/07/22 09:41:58;;;;;;;10.52;6.75;;;15.00;99.90;;;;;;5032952;28;20042;-22
2023/07/22 09:44:32;;;;;;;15.75;7.85;;;15.10;99.90;;;;;;5050863;28;20102;-23
2023/07/22 09:47:06;;;;;;;10.70;7.40;;;15.10;99.90;;;;;;5073918;28;20113;-22
2023/07/22 09:49:32;;;;;;;12.48;8.35;;;15.10;99.90;;;;;;5074142;28;20043;-22
2023/07/22 09:51:58;;;;;;;10.57;6.82;;;15.20;99.90;;;;;;5073105;28;20044;-22
2023/07/22 09:54:29;;;;;;;10.70;6.85;;;15.30;99.90;;;;;;5072604;28;20048;-22
2023/07/22 09:56:54;;;;;;;10.93;7.43;;;15.50;99.90;;;;;;5073707;28;20390;-22
2023/07/22 09:59:23;;;;;;;10.07;6.75;;;15.80;99.90;;;;;;5074573;28;20045;-22
2023/07/22 10:01:50;;;;;;;11.13;7.25;;;16.10;99.90;;;;;;5025904;28;20103;-23
2023/07/22 10:04:16;;;;;;;11.98;8.80;;;16.20;99.90;;;;;;5056756;28;20045;-23
2023/07/22 10:06:45;;;;;;;12.65;7.25;;;16.10;99.90;;;;;;5052461;28;20063;-23
2023/07/22 10:09:12;;;;;;;11.50;8.20;;;16.10;99.90;;;;;;5054048;28;20041;-23
2023/07/22 10:11:39;;;;;;;10.80;6.97;;;16.10;99.90;;;;;;5053842;28;20041;-23
2023/07/22 10:14:06;;;;;;;14.10;9.88;;;16.10;99.90;;;;;;5044000;28;20052;-24
2023/07/22 10:16:31;;;;;;;11.32;8.07;;;16.10;99.90;;;;;;5051112;28;20049;-24
2023/07/22 10:18:58;;;;;;;14.73;9.73;;;16.10;99.90;;;;;;5053697;28;20103;-24
2023/07/22 10:21:25;;;;;;;13.65;9.20;;;16.10;99.90;;;;;;5053735;28;20107;-24
2023/07/22 10:23:54;;;;;;;11.25;8.55;;;16.20;99.90;;;;;;5053696;28;20410;-24
2023/07/22 10:26:20;;;;;;;14.68;10.10;;;16.20;99.90;;;;;;5050320;28;20047;-24
2023/07/22 10:28:47;;;;;;;15.02;8.15;;;16.20;99.90;;;;;;5052485;28;20084;-24
2023/07/22 10:31:18;;;;;;;12.70;9.18;;;16.30;99.90;;;;;;5052619;28;20044;-23
2023/07/22 10:33:46;;;;;;;12.93;9.23;;;16.50;99.90;;;;;;5053193;28;20105;-23
2023/07/22 10:36:17;;;;;;;12.55;9.57;;;16.60;99.90;;;;;;5038683;28;20045;-24
2023/07/22 10:38:43;;;;;;;15.40;9.90;;;16.80;99.90;;;;;;5053805;28;20052;-24
2023/07/22 10:41:17;;;;;;;12.02;8.15;;;16.80;99.90;;;;;;5047030;28;20703;-24
2023/07/22 10:44:01;;;;;;;11.38;7.22;;;16.80;99.90;;;;;;5075501;28;20071;-24
2023/07/22 10:46:40;;;;;;;11.63;8.48;;;16.60;99.90;;;;;;5061536;28;20080;-24
2023/07/22 10:49:16;;;;;;;15.07;9.15;;;16.40;99.90;;;;;;5062313;28;20566;-23
2023/07/22 10:51:48;;;;;;;13.25;8.45;;;16.20;99.90;;;;;;5064487;28;20049;-23
2023/07/22 10:54:15;;;;;;;10.85;7.85;;;16.10;99.90;;;;;;5060676;28;20083;-23
2023/07/22 10:56:47;;;;;;;10.45;8.35;;;16.00;99.90;;;;;;5057460;28;20048;-23
2023/07/22 10:59:25;;;;;;;11.10;7.88;;;15.90;99.90;;;;;;5057748;28;20480;-23
2023/07/22 11:01:54;;;;;;;10.27;8.05;;;15.90;99.90;;;;;;5057412;28;20095;-23
2023/07/22 11:04:30;;;;;;;8.25;7.03;;;15.80;99.90;;;;;;5057383;28;20044;-22
2023/07/22 11:07:05;;;;;;;12.02;7.22;;;15.70;99.90;;;;;;5057367;28;20082;-22
2023/07/22 11:09:34;;;;;;;10.05;6.70;;;15.70;99.90;;;;;;5055044;28;20084;-22
2023/07/22 11:12:05;;;;;;;8.90;6.47;;;15.70;99.90;;;;;;5055911;28;20049;-21
2023/07/22 11:14:33;;;;;;;9.77;6.38;;;15.70;99.90;;;;;;5057163;28;20045;-21
2023/07/22 11:17:03;;;;;;;7.80;5.75;;;15.60;99.90;;;;;;5056779;28;20491;-22
2023/07/22 11:19:29;;;;;;;8.60;5.30;;;15.60;99.90;;;;;;5056746;28;20503;-22
2023/07/22 11:21:55;;;;;;;7.85;5.07;;;15.50;99.90;;;;;;5055697;28;20044;-21
2023/07/22 11:24:23;;;;;;;7.93;6.28;;;15.40;99.90;;;;;;5055735;28;20052;-22
2023/07/22 11:26:51;;;;;;;7.68;6.78;;;15.40;99.90;;;;;;5041481;28;20053;-22
2023/07/22 11:29:17;;;;;;;7.28;6.22;;;15.40;99.90;;;;;;5052918;28;20037;-22
2023/07/22 11:31:46;;;;;;;9.93;7.22;;;15.50;99.90;;;;;;5036857;28;20042;-22
2023/07/22 11:34:19;;;;;;;11.82;7.50;;;15.50;99.90;;;;;;5035668;28;20061;-22
2023/07/22 11:36:44;;;;;;;;;;;15.60;99.90;;;;;;5038087;28;20049;-22
2023/07/22 11:39:13;;;;;;;8.20;5.40;;;15.60;99.90;;;;;;5048959;28;20386;-22
2023/07/22 11:41:41;;;;;;;7.25;5.40;;;15.60;99.90;;;;;;5056647;28;20041;-21
2023/07/22 11:44:08;;;;;;;9.15;6.45;;;15.60;99.90;;;;;;5055635;28;20045;-21
2023/07/22 11:46:35;;;;;;;8.45;6.35;;;15.60;99.90;;;;;;5056809;28;20045;-22
2023/07/22 11:49:02;;;;;;;6.60;5.80;;;15.60;99.90;;;;;;5054440;28;20052;-22
2023/07/22 11:51:27;;;;;;;8.40;6.53;;;15.60;99.90;;;;;;5039230;28;20049;-23
2023/07/22 11:53:55;;;;;;;8.80;6.88;;;15.70;99.90;;;;;;5054860;28;20101;-22
2023/07/22 11:56:22;;;;;;;9.93;7.18;;;15.80;99.90;;;;;;5056342;28;20049;-21
2023/07/22 11:58:57;;;;;;;9.90;7.47;;;16.00;99.90;;;;;;5056352;28;20049;-22
2023/07/22 12:01:23;;;;;;;10.65;8.27;;;16.10;99.90;;;;;;5038923;28;20057;-21
2023/07/22 12:03:55;;;;;;;13.95;8.95;;;16.20;99.90;;;;;;5037136;28;20052;-21
2023/07/22 12:06:24;;;;;;;12.57;8.45;;;16.10;99.90;;;;;;5036849;28;20088;-22
2023/07/22 12:08:52;;;;;;;11.23;8.30;;;16.00;99.90;;;;;;5019484;28;20095;-21
2023/07/22 12:11:24;;;;;;;14.02;8.50;;;15.90;99.90;;;;;;5043488;28;20079;-22
2023/07/22 12:14:04;;;;;;;10.20;7.60;;;15.90;99.90;;;;;;5053869;28;20054;-22
2023/07/22 12:16:30;;;;;;;9.13;7.43;;;15.80;99.90;;;;;;5056869;28;20053;-21
2023/07/22 12:18:56;;;;;;;10.02;7.60;;;15.70;99.90;;;;;;5056798;28;20402;-22
2023/07/22 12:21:22;;;;;;;11.30;8.50;;;15.60;99.90;;;;;;5047954;28;20142;-22
2023/07/22 12:23:47;;;;;;;11.55;8.68;;;15.50;99.90;;;;;;5034792;28;20081;-21
2023/07/22 12:26:13;;;;;;;10.77;9.00;;;15.50;99.90;;;;;;5036127;28;20045;-22
2023/07/22 12:28:39;;;;;;;12.82;10.32;;;15.50;99.90;;;;;;5035675;28;20132;-22
2023/07/22 12:31:05;;;;;;;13.95;10.63;;;15.40;99.90;;;;;;5036122;28;20038;-22
2023/07/22 12:33:31;;;;;;;11.77;9.43;;;15.50;99.90;;;;;;5036985;28;20057;-22
2023/07/22 12:35:57;;;;;;;14.55;11.75;;;15.50;99.90;;;;;;5036530;28;20049;-22
2023/07/22 12:38:23;;;;;;;15.15;11.50;;;15.50;99.90;;;;;;5035489;28;20046;-22